Sanostee, NM (87461)

11:20 PM MDT on July 23, 2014 (GMT -0600)
Four Corners Regional (KFMN) Elev 5502 ft | 36.74 °N, 108.23 °W | Change Station

Current weather conditions updated 27 minutes ago

Clear
Clear
79 °F
Feels Like 79 °F
N
5
Wind Variable Wind from Variable

Tomorrow is forecast to be Much Cooler than today. Isolated thunderstorms tomorrow night.

Today
High -- | Low -- °F
--% Chance of Precip.
Yesterday
High -- | Low -- °F
Precip. -- in
6:14 AM 8:28 PM
Waning Crescent, 7% visible
Pressure 30.04 in
Visibility 10.0 miles
Clouds Clear
Dew Point 49 °F
Humidity 35%
Rainfall 0.00 in
Snow Depth Not available.
UV 0 out of 12
Pollen 5.20 out of 12
Air Quality Not available.
Flu Activity Not available.
METAR KFMN 240453Z AUTO VRB04KT 10SM CLR 26/09 A3027 RMK AO2 SLP172 T02610094

More Conditions Fewer Conditions

Pressure 30.04 in
Visibility 10.0 miles
Clouds Clear
Dew Point 49 °F
Humidity 35%
Rainfall 0.00 in
Snow Depth Not available.
UV 0 out of 12
Pollen 5.20 out of 12
Air Quality Not available.
Flu Activity Not available.
METAR KFMN 240453Z AUTO VRB04KT 10SM CLR 26/09 A3027 RMK AO2 SLP172 T02610094

More Conditions Fewer Conditions

10-Day Weather Forecast

Almanac

Astronomy

Jul. 23, 2014 Rise Set
Actual Time 6:14 AM MDT 8:28 PM MDT
Civil Twilight 5:45 AM MDT 8:57 PM MDT
Nautical Twilight 5:10 AM MDT 9:33 PM MDT
Astronomical Twilight 4:31 AM MDT 10:11 PM MDT
Moon 3:35 AM MDT (7/23) 6:00 PM MDT (7/23)
Length of Visible Light 15h 11m
Length of Day
14h 13m
Tomorrow will be 1m 28s shorter.
Waning Crescent, 7% of the Moon is Illuminated
Jul 24
Waning Crescent
Jul 26
New
Aug 3
First Quarter
Aug 10
Full
Aug 17
Last Quarter

Yesterday's Extremes

State Highs State Lows

Community

WunderPhotos

Upload Photos

1,736,912 photos uploaded!

Nearby

Snow Depth

Station Depth Elevation
Chamita 0 in 8400 ft
Bateman 0 in 9300 ft
Hopewell 0 in 10000 ft
Santa Fe 0 in 11445 ft
Gallegos Peak 0 in 9800 ft

Earthquake Activity

City Distance Mag. Time & Date
No recent earthquake activity has been reported nearby.
Minimum magnitude displayed is 2.5.

Coastal Water Temperatures

Place Temperature
No Stations Reporting

Nearby Weather Stations

Station Location Temp. Dew Point Humidity Wind Precip. Elev Updated Type
RAWS WASHINGTON PASS NM, Sheep Springs, NM 59 °F 45 °F 60% West  at  4 mph 0.00 in / hr 9352 ft 10:41 PM MDT MADIS

Show More Stations Show Fewer Stations